createdAt,value
2019-04-25T00:01:03.351Z,99345.88
2019-04-25T00:03:49.333Z,99333.25
2019-04-25T00:06:37.089Z,99347.34
2019-04-25T00:09:25.439Z,99322.75
2019-04-25T00:12:12.193Z,99315.98
2019-04-25T00:14:58.264Z,99316.62
2019-04-25T00:17:44.430Z,99298.90
2019-04-25T00:20:32.056Z,99310.47
2019-04-25T00:23:18.033Z,99318.48
2019-04-25T00:26:13.477Z,99336.48
2019-04-25T00:29:00.297Z,99337.59
2019-04-25T00:31:47.205Z,99342.52
2019-04-25T00:34:33.783Z,99346.91
2019-04-25T00:37:19.283Z,99332.77
2019-04-25T00:40:05.513Z,99335.88
2019-04-25T00:42:53.438Z,99347.22
2019-04-25T00:45:39.188Z,99350.09
2019-04-25T00:48:25.297Z,99354.39
2019-04-25T00:51:11.869Z,99356.24
2019-04-25T00:53:57.417Z,99354.06
2019-04-25T00:56:45.771Z,99357.23
2019-04-25T00:59:41.846Z,99358.23
2019-04-25T01:02:42.275Z,99336.97
2019-04-25T01:05:28.488Z,99328.79
2019-04-25T01:08:14.650Z,99328.33
2019-04-25T01:11:01.674Z,99326.36
2019-04-25T01:13:48.239Z,99324.95
2019-04-25T01:16:34.483Z,99320.89
2019-04-25T01:19:20.495Z,99317.71
2019-04-25T01:22:07.022Z,99324.04
2019-04-25T01:24:54.138Z,99323.94
2019-04-25T01:27:40.785Z,99320.09
2019-04-25T01:30:27.440Z,99303.14
2019-04-25T01:33:13.607Z,99297.14
2019-04-25T01:36:19.333Z,99304.84
2019-04-25T01:39:19.406Z,99306.72
2019-04-25T01:42:24.616Z,99301.91
2019-04-25T01:45:10.677Z,99306.00
2019-04-25T01:47:58.298Z,99315.30
2019-04-25T01:50:44.324Z,99310.67
2019-04-25T01:53:29.846Z,99315.44
2019-04-25T01:56:15.944Z,99319.08
2019-04-25T01:59:01.607Z,99316.11
2019-04-25T02:01:47.730Z,99310.80
2019-04-25T02:04:34.136Z,99316.28
2019-04-25T02:07:19.943Z,99330.64
2019-04-25T02:10:06.205Z,99340.70
2019-04-25T02:12:56.402Z,99367.38
2019-04-25T02:15:43.299Z,99384.02
2019-04-25T02:18:29.118Z,99388.03
2019-04-25T02:21:14.978Z,99392.89
2019-04-25T02:24:00.660Z,99393.89
2019-04-25T02:26:46.718Z,99404.30
2019-04-25T02:29:33.271Z,99402.06
2019-04-25T02:32:19.462Z,99413.13
2019-04-25T02:35:09.406Z,99411.87
2019-04-25T02:37:55.477Z,99415.30
2019-04-25T02:40:41.012Z,99415.93
2019-04-25T02:43:26.870Z,99409.88
2019-04-25T02:46:36.869Z,99397.67
2019-04-25T02:49:41.662Z,99392.98
2019-04-25T02:52:31.610Z,99382.23
2019-04-25T02:55:30.946Z,99384.56
2019-04-25T02:58:09.709Z,99379.83
2019-04-25T03:01:03.338Z,99385.32
2019-04-25T03:03:40.982Z,99386.14
2019-04-25T03:06:26.695Z,99390.36
2019-04-25T03:09:15.345Z,99390.17
2019-04-25T03:12:01.733Z,99384.81
2019-04-25T03:14:47.500Z,99379.64
2019-04-25T03:17:34.379Z,99382.09
2019-04-25T03:20:27.922Z,99379.51
2019-04-25T03:23:42.594Z,99373.29
2019-04-25T03:26:37.889Z,99371.62
2019-04-25T03:29:14.943Z,99369.61
2019-04-25T03:32:02.861Z,99368.31
2019-04-25T03:34:48.770Z,99367.13
2019-04-25T03:37:35.233Z,99371.13
2019-04-25T03:40:24.015Z,99369.71
2019-04-25T03:43:09.807Z,99366.56
2019-04-25T03:45:55.582Z,99379.36
2019-04-25T03:48:41.565Z,99384.78
2019-04-25T03:51:27.525Z,99392.60
2019-04-25T03:54:14.236Z,99397.33
2019-04-25T03:57:00.318Z,99397.65
2019-04-25T03:59:46.068Z,99396.77
2019-04-25T04:02:31.487Z,99393.58
2019-04-25T04:05:17.479Z,99393.42
2019-04-25T04:08:04.474Z,99394.92
2019-04-25T04:10:51.067Z,99390.96
2019-04-25T04:13:37.415Z,99395.12
2019-04-25T04:16:26.859Z,99397.23
2019-04-25T04:19:14.767Z,99403.70
2019-04-25T04:22:16.187Z,99413.35
2019-04-25T04:25:03.778Z,99407.55
2019-04-25T04:27:50.224Z,99408.14
2019-04-25T04:30:36.503Z,99407.70
2019-04-25T04:33:30.160Z,99412.25
2019-04-25T04:36:10.751Z,99419.34
2019-04-25T04:38:56.567Z,99414.55
2019-04-25T04:41:43.662Z,99431.27
2019-04-25T04:44:30.262Z,99435.33
2019-04-25T04:47:16.653Z,99421.90
2019-04-25T04:50:03.843Z,99427.51
2019-04-25T04:52:50.083Z,99432.97
2019-04-25T04:55:35.551Z,99431.14
2019-04-25T04:58:21.293Z,99435.39
2019-04-25T05:01:06.935Z,99443.88
2019-04-25T05:04:03.993Z,99438.45
2019-04-25T05:07:04.887Z,99432.77
2019-04-25T05:09:50.327Z,99440.53
2019-04-25T05:12:36.220Z,99435.66
2019-04-25T05:15:23.004Z,99438.08
2019-04-25T05:18:09.567Z,99436.24
2019-04-25T05:20:55.483Z,99440.83
2019-04-25T05:23:44.382Z,99441.88
2019-04-25T05:26:30.334Z,99440.10
2019-04-25T05:29:20.873Z,99434.22
2019-04-25T05:32:04.354Z,99433.81
2019-04-25T05:34:49.811Z,99430.33
2019-04-25T05:37:35.307Z,99431.80
2019-04-25T05:40:20.859Z,99438.38
2019-04-25T05:43:10.127Z,99438.34
2019-04-25T05:45:56.095Z,99438.48
2019-04-25T05:48:41.614Z,99447.00
2019-04-25T05:51:27.367Z,99452.15
2019-04-25T05:54:14.107Z,99448.58
2019-04-25T05:57:00.868Z,99452.85
2019-04-25T05:59:46.550Z,99460.55
2019-04-25T06:02:32.122Z,99470.14
2019-04-25T06:05:17.710Z,99469.65
2019-04-25T06:08:05.139Z,99475.05
2019-04-25T06:10:57.786Z,99477.39
2019-04-25T06:13:56.726Z,99479.06
2019-04-25T06:16:43.667Z,99480.25
2019-04-25T06:19:43.517Z,99475.88
2019-04-25T06:22:51.284Z,99483.69
2019-04-25T06:25:39.757Z,99479.52
2019-04-25T06:28:28.732Z,99485.06
2019-04-25T06:31:14.333Z,99475.20
2019-04-25T06:34:00.228Z,99480.28
2019-04-25T06:36:51.272Z,99472.61
2019-04-25T06:39:37.024Z,99471.87
2019-04-25T06:42:24.595Z,99473.71
2019-04-25T06:45:34.306Z,99483.59
2019-04-25T06:48:45.719Z,99484.32
2019-04-25T06:51:51.351Z,99486.60
2019-04-25T06:54:37.297Z,99490.27
2019-04-25T06:57:24.443Z,99493.22
2019-04-25T07:00:14.056Z,99491.08
2019-04-25T07:03:00.064Z,99502.69
2019-04-25T07:05:45.749Z,99504.85
2019-04-25T07:08:31.573Z,99515.67
2019-04-25T07:11:17.168Z,99509.55
2019-04-25T07:14:04.188Z,99510.44
2019-04-25T07:16:49.749Z,99513.70
2019-04-25T07:19:37.828Z,99510.36
2019-04-25T07:22:24.841Z,99519.20
2019-04-25T07:25:13.393Z,99508.98
2019-04-25T07:28:28.510Z,99505.33
2019-04-25T07:31:31.033Z,99500.75
2019-04-25T07:34:20.478Z,99491.26
2019-04-25T07:37:06.123Z,99505.21
2019-04-25T07:39:51.669Z,99499.39
2019-04-25T07:42:46.640Z,99499.50
2019-04-25T07:45:34.700Z,99499.36
2019-04-25T07:48:22.802Z,99508.47
2019-04-25T07:51:09.266Z,99519.48
2019-04-25T07:53:54.753Z,99530.00
2019-04-25T07:56:40.471Z,99532.01
2019-04-25T07:59:27.371Z,99540.81
2019-04-25T08:02:13.537Z,99538.13
2019-04-25T08:05:02.263Z,99539.47
2019-04-25T08:07:48.381Z,99538.73
2019-04-25T08:10:54.665Z,99543.75
2019-04-25T08:14:00.021Z,99545.77
2019-04-25T08:16:49.249Z,99542.33
2019-04-25T08:19:35.639Z,99544.70
2019-04-25T08:22:21.144Z,99551.08
2019-04-25T08:25:07.193Z,99549.16
2019-04-25T08:27:53.505Z,99550.55
2019-04-25T08:30:41.785Z,99548.56
2019-04-25T08:33:29.057Z,99552.23
2019-04-25T08:36:15.918Z,99556.42
2019-04-25T08:39:03.249Z,99566.47
2019-04-25T08:41:49.235Z,99565.70
2019-04-25T08:44:35.961Z,99569.55
2019-04-25T08:47:24.225Z,99566.78
2019-04-25T08:50:26.687Z,99558.52
2019-04-25T08:53:04.546Z,99572.33
2019-04-25T08:55:59.808Z,99567.36
2019-04-25T08:59:34.207Z,99560.94
2019-04-25T09:02:46.270Z,99570.10
2019-04-25T09:05:44.008Z,99568.05
2019-04-25T09:08:29.038Z,99569.83
2019-04-25T09:11:15.209Z,99568.36
2019-04-25T09:14:01.129Z,99572.16
2019-04-25T09:16:46.820Z,99577.27
2019-04-25T09:19:33.603Z,99577.27
2019-04-25T09:22:20.682Z,99578.54
2019-04-25T09:25:07.213Z,99583.04
2019-04-25T09:27:54.346Z,99585.66
2019-04-25T09:30:40.437Z,99581.18
2019-04-25T09:33:26.076Z,99585.11
2019-04-25T09:36:12.062Z,99586.42
2019-04-25T09:39:01.286Z,99593.98
2019-04-25T09:41:46.496Z,99590.44
2019-04-25T09:44:44.163Z,99592.09
2019-04-25T09:47:30.254Z,99580.19
2019-04-25T09:50:27.613Z,99588.09
2019-04-25T09:53:21.774Z,99590.67
2019-04-25T09:56:38.678Z,99586.84
2019-04-25T09:59:27.880Z,99586.73
2019-04-25T10:02:15.098Z,99580.42
2019-04-25T10:05:01.710Z,99574.30
2019-04-25T10:07:48.948Z,99569.31
2019-04-25T10:10:35.326Z,99576.63
2019-04-25T10:13:21.506Z,99581.31
2019-04-25T10:16:10.469Z,99584.50
2019-04-25T10:18:57.554Z,99579.57
2019-04-25T10:21:45.149Z,99581.26
2019-04-25T10:24:30.839Z,99576.39
2019-04-25T10:27:16.694Z,99583.73
2019-04-25T10:30:15.971Z,99583.20
2019-04-25T10:32:50.999Z,99581.72
2019-04-25T10:35:47.926Z,99592.22
2019-04-25T10:38:26.823Z,99580.95
2019-04-25T10:41:14.202Z,99589.81
2019-04-25T10:44:00.319Z,99569.33
2019-04-25T10:46:47.343Z,99583.17
2019-04-25T10:49:34.492Z,99574.92
2019-04-25T10:52:20.835Z,99568.51
2019-04-25T10:55:06.975Z,99574.48
2019-04-25T10:57:53.849Z,99561.30
2019-04-25T11:00:42.255Z,99564.81
2019-04-25T11:03:54.451Z,99566.45
2019-04-25T11:06:41.888Z,99555.56
2019-04-25T11:09:27.773Z,99548.14
2019-04-25T11:12:14.279Z,99553.80
2019-04-25T11:15:01.127Z,99547.59
2019-04-25T11:17:46.783Z,99544.00
2019-04-25T11:20:33.833Z,99547.41
2019-04-25T11:23:20.415Z,99543.70
2019-04-25T11:26:06.408Z,99532.28
2019-04-25T11:28:52.082Z,99537.27
2019-04-25T11:31:44.828Z,99534.18
2019-04-25T11:34:31.102Z,99528.89
2019-04-25T11:37:17.693Z,99534.63
2019-04-25T11:40:10.119Z,99519.95
2019-04-25T11:42:57.136Z,99518.77
2019-04-25T11:45:42.549Z,99522.99
2019-04-25T11:48:28.715Z,99509.48
2019-04-25T11:51:14.871Z,99513.56
2019-04-25T11:54:01.262Z,99504.20
2019-04-25T11:56:47.332Z,99509.37
2019-04-25T11:59:34.140Z,99503.14
2019-04-25T12:02:21.480Z,99510.91
2019-04-25T12:05:07.601Z,99504.61
2019-04-25T12:07:53.435Z,99486.95
2019-04-25T12:10:39.783Z,99493.84
2019-04-25T12:13:25.601Z,99490.70
2019-04-25T12:16:11.382Z,99486.95
2019-04-25T12:18:57.278Z,99488.18
2019-04-25T12:21:45.797Z,99482.23
2019-04-25T12:24:33.495Z,99474.06
2019-04-25T12:27:19.504Z,99480.65
2019-04-25T12:30:07.629Z,99478.20
2019-04-25T12:32:54.151Z,99482.87
2019-04-25T12:35:41.199Z,99488.22
2019-04-25T12:38:26.867Z,99488.88
2019-04-25T12:41:12.546Z,99488.45
2019-04-25T12:44:23.189Z,99499.56
2019-04-25T12:47:13.598Z,99497.20
2019-04-25T12:49:59.534Z,99491.41
2019-04-25T12:52:46.527Z,99495.97
2019-04-25T12:55:34.093Z,99487.73
2019-04-25T12:58:19.994Z,99480.30
2019-04-25T13:01:06.434Z,99479.82
2019-04-25T13:03:51.983Z,99479.75
2019-04-25T13:06:37.494Z,99461.03
2019-04-25T13:09:23.558Z,99463.89
2019-04-25T13:12:10.843Z,99457.02
2019-04-25T13:14:56.563Z,99448.97
2019-04-25T13:17:43.686Z,99446.89
2019-04-25T13:20:29.934Z,99441.97
2019-04-25T13:23:16.079Z,99439.79
2019-04-25T13:26:04.388Z,99443.92
2019-04-25T13:29:17.756Z,99437.31
2019-04-25T13:32:30.445Z,99443.52
2019-04-25T13:35:24.082Z,99439.53
2019-04-25T13:38:13.653Z,99435.74
2019-04-25T13:40:59.452Z,99435.13
2019-04-25T13:43:45.229Z,99436.10
2019-04-25T13:46:32.625Z,99434.98
2019-04-25T13:49:19.477Z,99429.77
2019-04-25T13:52:08.077Z,99421.48
2019-04-25T13:54:53.869Z,99429.63
2019-04-25T13:57:39.329Z,99427.77
2019-04-25T14:00:26.174Z,99421.14
2019-04-25T14:03:11.886Z,99417.62
2019-04-25T14:05:57.602Z,99420.28
2019-04-25T14:08:46.208Z,99417.49
2019-04-25T14:11:35.702Z,99419.91
2019-04-25T14:14:21.489Z,99414.83
2019-04-25T14:17:15.707Z,99416.54
2019-04-25T14:20:14.237Z,99408.83
2019-04-25T14:22:59.923Z,99401.84
2019-04-25T14:25:45.688Z,99387.35
2019-04-25T14:28:31.810Z,99374.36
2019-04-25T14:31:33.519Z,99378.32
2019-04-25T14:34:17.163Z,99389.89
2019-04-25T14:37:11.181Z,99380.77
2019-04-25T14:39:57.091Z,99378.38
2019-04-25T14:42:42.673Z,99372.42
2019-04-25T14:45:41.549Z,99382.98
2019-04-25T14:48:16.986Z,99367.74
2019-04-25T14:51:03.214Z,99366.11
2019-04-25T14:53:49.021Z,99363.05
2019-04-25T14:56:42.918Z,99373.19
2019-04-25T14:59:28.979Z,99373.91
2019-04-25T15:02:14.818Z,99368.14
2019-04-25T15:05:00.307Z,99375.84
2019-04-25T15:07:45.777Z,99373.88
2019-04-25T15:10:31.947Z,99368.35
2019-04-25T15:13:17.796Z,99367.85
2019-04-25T15:16:04.961Z,99360.44
2019-04-25T15:18:51.066Z,99350.69
2019-04-25T15:21:36.549Z,99352.65
2019-04-25T15:24:23.004Z,99350.69
2019-04-25T15:27:09.663Z,99346.39
2019-04-25T15:29:55.057Z,99347.90
2019-04-25T15:32:40.999Z,99338.23
2019-04-25T15:35:35.906Z,99332.64
2019-04-25T15:38:41.816Z,99334.81
2019-04-25T15:41:59.934Z,99332.58
2019-04-25T15:45:04.871Z,99334.92
2019-04-25T15:47:50.467Z,99328.27
2019-04-25T15:50:37.100Z,99328.20
2019-04-25T15:53:23.415Z,99321.03
2019-04-25T15:56:10.759Z,99321.47
2019-04-25T15:58:56.218Z,99317.91
2019-04-25T16:01:42.466Z,99316.64
2019-04-25T16:04:28.205Z,99313.08
2019-04-25T16:07:15.686Z,99310.11
2019-04-25T16:10:01.540Z,99313.27
2019-04-25T16:12:47.517Z,99308.53
2019-04-25T16:15:33.259Z,99305.94
2019-04-25T16:18:19.547Z,99298.19
2019-04-25T16:21:05.579Z,99299.19
2019-04-25T16:23:51.467Z,99300.52
2019-04-25T16:26:37.299Z,99299.82
2019-04-25T16:29:23.104Z,99302.16
2019-04-25T16:32:20.503Z,99298.40
2019-04-25T16:35:00.358Z,99290.61
2019-04-25T16:37:45.971Z,99294.25
2019-04-25T16:40:31.958Z,99295.48
2019-04-25T16:43:21.928Z,99293.18
2019-04-25T16:46:07.530Z,99297.19
2019-04-25T16:48:53.002Z,99300.52
2019-04-25T16:51:39.639Z,99289.52
2019-04-25T16:54:25.697Z,99285.58
2019-04-25T16:57:11.247Z,99287.11
2019-04-25T16:59:56.891Z,99286.90
2019-04-25T17:02:45.372Z,99287.38
2019-04-25T17:05:32.672Z,99292.52
2019-04-25T17:08:18.315Z,99292.36
2019-04-25T17:11:05.271Z,99285.15
2019-04-25T17:14:03.040Z,99285.77
2019-04-25T17:17:10.614Z,99285.18
2019-04-25T17:20:20.448Z,99286.75
2019-04-25T17:23:07.552Z,99289.20
2019-04-25T17:25:53.795Z,99288.35
2019-04-25T17:28:41.265Z,99284.47
2019-04-25T17:31:34.162Z,99277.63
2019-04-25T17:34:34.060Z,99279.47
2019-04-25T17:37:26.652Z,99277.41
2019-04-25T17:40:15.100Z,99280.08
2019-04-25T17:43:10.979Z,99279.45
2019-04-25T17:45:48.820Z,99277.67
2019-04-25T17:48:34.391Z,99281.92
2019-04-25T17:51:20.289Z,99279.20
2019-04-25T17:54:07.052Z,99279.42
2019-04-25T17:56:52.580Z,99287.47
2019-04-25T17:59:39.227Z,99284.31
2019-04-25T18:02:26.612Z,99284.86
2019-04-25T18:05:12.683Z,99287.83
2019-04-25T18:07:58.562Z,99283.22
2019-04-25T18:10:44.360Z,99287.00
2019-04-25T18:13:31.729Z,99286.53
2019-04-25T18:16:29.415Z,99286.16
2019-04-25T18:19:22.263Z,99284.37
2019-04-25T18:22:15.593Z,99288.51
2019-04-25T18:25:11.831Z,99291.78
2019-04-25T18:28:20.152Z,99290.05
2019-04-25T18:31:08.289Z,99291.77
2019-04-25T18:33:57.965Z,99289.31
2019-04-25T18:37:07.137Z,99289.63
2019-04-25T18:40:05.088Z,99294.30
2019-04-25T18:43:15.340Z,99286.77
2019-04-25T18:46:06.440Z,99295.86
2019-04-25T18:48:52.493Z,99297.95
2019-04-25T18:51:38.577Z,99300.63
2019-04-25T18:54:45.254Z,99301.19
2019-04-25T18:57:41.940Z,99306.02
2019-04-25T19:01:01.986Z,99310.27
2019-04-25T19:04:03.762Z,99325.20
2019-04-25T19:06:55.247Z,99351.37
2019-04-25T19:09:37.388Z,99361.91
2019-04-25T19:12:25.643Z,99378.62
2019-04-25T19:15:12.014Z,99392.33
2019-04-25T19:17:57.446Z,99407.77
2019-04-25T19:20:43.993Z,99421.61
2019-04-25T19:23:29.945Z,99423.27
2019-04-25T19:26:15.493Z,99437.81
2019-04-25T19:29:01.082Z,99443.44
2019-04-25T19:31:46.950Z,99445.06
2019-04-25T19:34:32.984Z,99460.22
2019-04-25T19:37:19.201Z,99458.58
2019-04-25T19:40:42.153Z,99470.52
2019-04-25T19:43:51.036Z,99470.29
2019-04-25T19:46:42.819Z,99488.18
2019-04-25T19:49:29.159Z,99502.56
2019-04-25T19:52:14.985Z,99507.51
2019-04-25T19:55:00.788Z,99510.86
2019-04-25T19:57:48.248Z,99511.70
2019-04-25T20:00:36.871Z,99517.13
2019-04-25T20:03:53.531Z,99523.09
2019-04-25T20:06:51.609Z,99512.09
2019-04-25T20:10:00.043Z,99526.67
2019-04-25T20:12:50.310Z,99534.44
2019-04-25T20:15:35.317Z,99538.09
2019-04-25T20:18:21.422Z,99539.08
2019-04-25T20:21:07.106Z,99547.41
2019-04-25T20:23:52.791Z,99551.30
2019-04-25T20:26:38.640Z,99549.01
2019-04-25T20:29:24.160Z,99555.99
2019-04-25T20:32:09.945Z,99547.47
2019-04-25T20:34:55.933Z,99548.48
2019-04-25T20:37:41.640Z,99553.80
2019-04-25T20:40:27.371Z,99561.94
2019-04-25T20:43:12.761Z,99569.21
2019-04-25T20:45:58.581Z,99573.62
2019-04-25T20:48:43.956Z,99572.53
2019-04-25T20:51:31.306Z,99586.81
2019-04-25T20:54:17.161Z,99585.86
2019-04-25T20:57:03.181Z,99581.80
2019-04-25T20:59:49.373Z,99582.13
2019-04-25T21:02:35.546Z,99581.13
2019-04-25T21:05:21.290Z,99584.03
2019-04-25T21:08:07.306Z,99579.11
2019-04-25T21:10:53.558Z,99576.42
2019-04-25T21:13:59.781Z,99571.84
2019-04-25T21:16:54.349Z,99581.50
2019-04-25T21:19:42.413Z,99581.73
2019-04-25T21:22:28.416Z,99587.48
2019-04-25T21:25:14.489Z,99587.02
2019-04-25T21:28:03.057Z,99590.30
2019-04-25T21:30:48.913Z,99594.95
2019-04-25T21:33:34.665Z,99590.68
2019-04-25T21:36:20.688Z,99595.13
2019-04-25T21:39:13.046Z,99601.42
2019-04-25T21:42:21.017Z,99607.76
2019-04-25T21:45:07.541Z,99607.81
2019-04-25T21:47:54.037Z,99617.32
2019-04-25T21:50:40.434Z,99613.70
2019-04-25T21:53:26.492Z,99610.02
2019-04-25T21:56:13.027Z,99617.97
2019-04-25T21:58:59.782Z,99619.58
2019-04-25T22:01:45.817Z,99611.87
2019-04-25T22:04:38.763Z,99618.64
2019-04-25T22:07:19.159Z,99614.84
2019-04-25T22:10:06.088Z,99617.88
2019-04-25T22:12:52.345Z,99619.69
2019-04-25T22:15:40.042Z,99625.09
2019-04-25T22:18:26.048Z,99616.74
2019-04-25T22:21:12.331Z,99614.59
2019-04-25T22:24:08.955Z,99615.89
2019-04-25T22:26:46.934Z,99611.09
2019-04-25T22:29:35.389Z,99615.44
2019-04-25T22:32:31.147Z,99605.58
2019-04-25T22:35:22.270Z,99613.13
2019-04-25T22:38:08.846Z,99606.63
2019-04-25T22:40:54.346Z,99614.27
2019-04-25T22:43:47.413Z,99608.87
2019-04-25T22:46:33.293Z,99608.70
2019-04-25T22:49:19.422Z,99621.47
2019-04-25T22:52:05.375Z,99629.80
2019-04-25T22:54:51.238Z,99637.55
2019-04-25T22:57:37.670Z,99647.86
2019-04-25T23:00:28.366Z,99648.12
2019-04-25T23:03:24.883Z,99658.89
2019-04-25T23:06:11.793Z,99659.67
2019-04-25T23:08:57.765Z,99662.08
2019-04-25T23:11:43.448Z,99658.58
2019-04-25T23:14:29.412Z,99655.88
2019-04-25T23:17:15.586Z,99657.33
2019-04-25T23:20:01.446Z,99649.19
2019-04-25T23:22:46.948Z,99648.98
2019-04-25T23:25:53.094Z,99650.44
2019-04-25T23:28:40.680Z,99644.13
2019-04-25T23:31:28.052Z,99644.27
2019-04-25T23:34:15.284Z,99638.53
2019-04-25T23:37:01.002Z,99629.73
2019-04-25T23:39:46.999Z,99631.37
2019-04-25T23:42:32.803Z,99657.19
2019-04-25T23:45:19.458Z,99663.78
2019-04-25T23:48:04.776Z,99660.23
2019-04-25T23:50:53.650Z,99666.25
2019-04-25T23:53:39.579Z,99679.48
2019-04-25T23:56:25.098Z,99675.36
2019-04-25T23:59:11.585Z,99666.17
